Hartland, Minnesota
Current Conditions -  °F | °C
As of 4:14 PM on Saturday 25 Oct 2014 (Local Time) from KAEL Reporting Station
Clear Clear  
Wind Chill: 64°   Ceiling: Unl
Heat Index: 64°   Visibility: 10mi
Dew Point: 27°   Wind: 9mph
Humidity: 24%   Direction: 320°NW
Pressure: 30.07"   Gusts: 16mph
Location:  43.8°N, 93.49°W
Report Text: KAEL 252114Z AUTO 32008G14KT 10SM CLR 18/M03 A3007 RMK AO2
Loading
Personal Weather Stations






























Interactive Weather Map New forecast layout! Learn more

10-Day Weather Forecast

Advertisements
Track Severe Weather on mobile